Wolf Summit, West Virginia
Current Conditions -  °F | °C
As of 12:53 PM on Sunday 23 Nov 2014 (Local Time) from KCKB Reporting Station
Clear Clear  
Wind Chill: 65°   Ceiling: Unl
Heat Index: 65°   Visibility: 10mi
Dew Point: 48°   Wind: 8mph
Humidity: 54%   Direction: 110°ESE
Pressure: 29.97"   Gusts: NA
Location:  39.3132°N, 80.625°W
Report Text: KCKB 231753Z 11007KT 10SM CLR 18/09 A2997 RMK AO2 SLP140 T01830089 10183 20028 58036
Loading
Personal Weather Stations






























Interactive Weather Map New forecast layout! Learn more

10-Day Weather Forecast

Advertisements
Track Severe Weather on mobile